KHFD/HFD METAR and TAF weather

Enter ICAO airport designator
Station Type Date Time Source
KHFD METAR 2021/09/16 10:53 UTC NOAA

KHFD 161053Z 04008KT 9SM -RA FEW060 OVC095 19/18 A3013 RMK AO2 RAB04 SLP202 P0004 T01940178


Station Type Date Time Source
KHFD Decoded METAR 2021/09/16 10:53 UTC NOAA

HARTFORD-BRAINARD AIRPORT, CT, United States (KHFD) 41-44N 072-39W 4M
Sep 16, 2021 - 06:53 AM EDT / 2021.09.16 1053 UTC
Wind: from the NE (040 degrees) at 9 MPH (8 KT):0
Visibility: 9 mile(s):0
Sky conditions: overcast
Weather: light rain
Precipitation last hour: 0.04 inches
Temperature: 66.9 F (19.4 C)
Dew Point: 64.0 F (17.8 C)
Relative Humidity: 90%
Pressure (altimeter): 30.13 in. Hg (1020 hPa)
ob: KHFD 161053Z 04008KT 9SM -RA FEW060 OVC095 19/18 A3013 RMK AO2 RAB04 SLP202 P0004 T01940178
cycle: 11

Station Type Date Time Source
KHFD TAF UTC NOAA

Error!

Example: see airport list